sensor_id;sensor_type;location;lat;lon;timestamp;temperature;humidity
13835;DHT22;6988;52.614;13.500;2023-09-30T00:02:07;17.20;99.90
13835;DHT22;6988;52.614;13.500;2023-09-30T00:06:58;17.20;99.90
13835;DHT22;6988;52.614;13.500;2023-09-30T00:11:50;17.10;99.90
13835;DHT22;6988;52.614;13.500;2023-09-30T00:16:44;17.00;99.90
13835;DHT22;6988;52.614;13.500;2023-09-30T00:21:36;16.90;99.90
13835;DHT22;6988;52.614;13.500;2023-09-30T00:26:28;16.70;99.90
13835;DHT22;6988;52.614;13.500;2023-09-30T00:31:20;16.60;99.90
13835;DHT22;6988;52.614;13.500;2023-09-30T00:36:14;16.50;99.90
13835;DHT22;6988;52.614;13.500;2023-09-30T00:41:07;16.40;99.90
13835;DHT22;6988;52.614;13.500;2023-09-30T00:46:02;16.20;99.90
13835;DHT22;6988;52.614;13.500;2023-09-30T00:50:58;16.10;99.90
13835;DHT22;6988;52.614;13.500;2023-09-30T00:55:52;16.00;99.90
13835;DHT22;6988;52.614;13.500;2023-09-30T01:00:47;16.00;99.90
13835;DHT22;6988;52.614;13.500;2023-09-30T01:05:39;15.80;99.90
13835;DHT22;6988;52.614;13.500;2023-09-30T01:10:31;15.70;99.90
13835;DHT22;6988;52.614;13.500;2023-09-30T01:15:24;15.50;99.90
13835;DHT22;6988;52.614;13.500;2023-09-30T01:20:17;15.30;99.90
13835;DHT22;6988;52.614;13.500;2023-09-30T01:25:15;15.30;99.90
13835;DHT22;6988;52.614;13.500;2023-09-30T01:30:08;15.10;99.90
13835;DHT22;6988;52.614;13.500;2023-09-30T01:35:01;15.00;99.90
13835;DHT22;6988;52.614;13.500;2023-09-30T01:39:53;14.90;99.90
13835;DHT22;6988;52.614;13.500;2023-09-30T01:44:46;14.80;99.90
13835;DHT22;6988;52.614;13.500;2023-09-30T01:49:38;14.70;99.90
13835;DHT22;6988;52.614;13.500;2023-09-30T01:54:30;14.60;99.90
13835;DHT22;6988;52.614;13.500;2023-09-30T01:59:22;14.50;99.90
13835;DHT22;6988;52.614;13.500;2023-09-30T02:04:17;14.40;99.90
13835;DHT22;6988;52.614;13.500;2023-09-30T02:09:09;14.40;99.90
13835;DHT22;6988;52.614;13.500;2023-09-30T02:14:02;14.30;99.90
13835;DHT22;6988;52.614;13.500;2023-09-30T02:18:54;14.30;99.90
13835;DHT22;6988;52.614;13.500;2023-09-30T02:23:48;14.20;99.90
13835;DHT22;6988;52.614;13.500;2023-09-30T02:28:39;14.10;99.90
13835;DHT22;6988;52.614;13.500;2023-09-30T02:33:31;13.90;99.90
13835;DHT22;6988;52.614;13.500;2023-09-30T02:38:26;13.90;99.90
13835;DHT22;6988;52.614;13.500;2023-09-30T02:43:19;13.90;99.90
13835;DHT22;6988;52.614;13.500;2023-09-30T02:48:11;13.80;99.90
13835;DHT22;6988;52.614;13.500;2023-09-30T02:53:04;13.70;99.90
13835;DHT22;6988;52.614;13.500;2023-09-30T02:57:57;13.70;99.90
13835;DHT22;6988;52.614;13.500;2023-09-30T03:02:52;13.50;99.90
13835;DHT22;6988;52.614;13.500;2023-09-30T03:07:45;13.60;99.90
13835;DHT22;6988;52.614;13.500;2023-09-30T03:12:37;13.50;99.90
13835;DHT22;6988;52.614;13.500;2023-09-30T03:17:29;13.50;99.90
13835;DHT22;6988;52.614;13.500;2023-09-30T03:28:09;13.40;99.90
13835;DHT22;6988;52.614;13.500;2023-09-30T03:33:01;13.30;99.90
13835;DHT22;6988;52.614;13.500;2023-09-30T03:37:54;13.30;99.90
13835;DHT22;6988;52.614;13.500;2023-09-30T03:42:47;13.20;99.90
13835;DHT22;6988;52.614;13.500;2023-09-30T03:47:42;13.20;99.90
13835;DHT22;6988;52.614;13.500;2023-09-30T03:52:35;13.20;99.90
13835;DHT22;6988;52.614;13.500;2023-09-30T03:57:30;13.20;99.90
13835;DHT22;6988;52.614;13.500;2023-09-30T04:02:24;13.30;99.90
13835;DHT22;6988;52.614;13.500;2023-09-30T04:07:17;13.10;99.90
13835;DHT22;6988;52.614;13.500;2023-09-30T04:12:17;13.10;99.90
13835;DHT22;6988;52.614;13.500;2023-09-30T04:17:09;13.00;99.90
13835;DHT22;6988;52.614;13.500;2023-09-30T04:22:04;12.90;99.90
13835;DHT22;6988;52.614;13.500;2023-09-30T04:26:58;12.90;99.90
13835;DHT22;6988;52.614;13.500;2023-09-30T04:31:53;12.90;99.90
13835;DHT22;6988;52.614;13.500;2023-09-30T04:36:53;12.80;99.90
13835;DHT22;6988;52.614;13.500;2023-09-30T04:41:50;12.70;99.90
13835;DHT22;6988;52.614;13.500;2023-09-30T04:46:43;12.70;99.90
13835;DHT22;6988;52.614;13.500;2023-09-30T04:51:36;12.70;99.90
13835;DHT22;6988;52.614;13.500;2023-09-30T04:56:30;12.60;99.90
13835;DHT22;6988;52.614;13.500;2023-09-30T05:01:21;12.70;99.90
13835;DHT22;6988;52.614;13.500;2023-09-30T05:06:14;12.60;99.90
13835;DHT22;6988;52.614;13.500;2023-09-30T05:11:06;12.40;99.90
13835;DHT22;6988;52.614;13.500;2023-09-30T05:15:58;12.50;99.90
13835;DHT22;6988;52.614;13.500;2023-09-30T05:20:50;12.50;99.90
13835;DHT22;6988;52.614;13.500;2023-09-30T05:25:44;12.50;99.90
13835;DHT22;6988;52.614;13.500;2023-09-30T05:30:36;12.50;99.90
13835;DHT22;6988;52.614;13.500;2023-09-30T05:35:29;12.50;99.90
13835;DHT22;6988;52.614;13.500;2023-09-30T05:40:22;12.50;99.90
13835;DHT22;6988;52.614;13.500;2023-09-30T05:45:17;12.50;99.90
13835;DHT22;6988;52.614;13.500;2023-09-30T05:50:10;12.60;99.90
13835;DHT22;6988;52.614;13.500;2023-09-30T05:55:05;12.70;99.90
13835;DHT22;6988;52.614;13.500;2023-09-30T05:59:57;12.70;99.90
13835;DHT22;6988;52.614;13.500;2023-09-30T06:04:51;12.80;99.90
13835;DHT22;6988;52.614;13.500;2023-09-30T06:09:44;12.80;99.90
13835;DHT22;6988;52.614;13.500;2023-09-30T06:14:40;13.00;99.90
13835;DHT22;6988;52.614;13.500;2023-09-30T06:19:35;13.10;99.90
13835;DHT22;6988;52.614;13.500;2023-09-30T06:24:32;13.30;99.90
13835;DHT22;6988;52.614;13.500;2023-09-30T06:29:25;13.50;99.90
13835;DHT22;6988;52.614;13.500;2023-09-30T06:34:17;13.60;99.90
13835;DHT22;6988;52.614;13.500;2023-09-30T06:39:10;13.80;99.90
13835;DHT22;6988;52.614;13.500;2023-09-30T06:44:03;13.80;99.90
13835;DHT22;6988;52.614;13.500;2023-09-30T06:48:55;13.80;99.90
13835;DHT22;6988;52.614;13.500;2023-09-30T06:53:46;13.80;99.90
13835;DHT22;6988;52.614;13.500;2023-09-30T06:58:41;13.90;99.90
13835;DHT22;6988;52.614;13.500;2023-09-30T07:03:35;14.20;99.90
13835;DHT22;6988;52.614;13.500;2023-09-30T07:08:27;14.60;99.90
13835;DHT22;6988;52.614;13.500;2023-09-30T07:13:20;14.90;99.90
13835;DHT22;6988;52.614;13.500;2023-09-30T07:18:12;15.00;99.90
13835;DHT22;6988;52.614;13.500;2023-09-30T07:23:06;15.00;99.90
13835;DHT22;6988;52.614;13.500;2023-09-30T07:27:59;15.00;99.90
13835;DHT22;6988;52.614;13.500;2023-09-30T07:32:51;15.00;99.90
13835;DHT22;6988;52.614;13.500;2023-09-30T07:37:43;15.10;99.90
13835;DHT22;6988;52.614;13.500;2023-09-30T07:42:37;15.30;99.90
13835;DHT22;6988;52.614;13.500;2023-09-30T07:47:28;15.40;99.90
13835;DHT22;6988;52.614;13.500;2023-09-30T07:52:21;15.50;99.90
13835;DHT22;6988;52.614;13.500;2023-09-30T07:57:12;15.50;99.90
13835;DHT22;6988;52.614;13.500;2023-09-30T08:02:06;15.40;99.90
13835;DHT22;6988;52.614;13.500;2023-09-30T08:06:59;15.30;99.90
13835;DHT22;6988;52.614;13.500;2023-09-30T08:11:53;15.20;99.90
13835;DHT22;6988;52.614;13.500;2023-09-30T08:16:44;15.20;99.90
13835;DHT22;6988;52.614;13.500;2023-09-30T08:21:37;15.20;99.90
13835;DHT22;6988;52.614;13.500;2023-09-30T08:26:29;15.20;99.90
13835;DHT22;6988;52.614;13.500;2023-09-30T08:31:21;15.40;99.90
13835;DHT22;6988;52.614;13.500;2023-09-30T08:36:14;15.60;99.90
13835;DHT22;6988;52.614;13.500;2023-09-30T08:41:07;15.80;99.90
13835;DHT22;6988;52.614;13.500;2023-09-30T08:45:59;16.00;99.90
13835;DHT22;6988;52.614;13.500;2023-09-30T08:50:54;15.90;99.90
13835;DHT22;6988;52.614;13.500;2023-09-30T08:55:46;16.10;99.90
13835;DHT22;6988;52.614;13.500;2023-09-30T09:00:40;16.30;99.90
13835;DHT22;6988;52.614;13.500;2023-09-30T09:05:32;16.60;99.90
13835;DHT22;6988;52.614;13.500;2023-09-30T09:10:24;16.80;99.90
13835;DHT22;6988;52.614;13.500;2023-09-30T09:15:25;17.00;99.90
13835;DHT22;6988;52.614;13.500;2023-09-30T09:20:21;17.60;99.90
13835;DHT22;6988;52.614;13.500;2023-09-30T09:25:17;18.40;99.90
13835;DHT22;6988;52.614;13.500;2023-09-30T09:30:20;19.00;99.90
13835;DHT22;6988;52.614;13.500;2023-09-30T09:35:20;19.20;99.90
13835;DHT22;6988;52.614;13.500;2023-09-30T09:40:13;19.70;99.90
13835;DHT22;6988;52.614;13.500;2023-09-30T09:45:15;19.90;99.90
13835;DHT22;6988;52.614;13.500;2023-09-30T09:50:07;19.90;99.90
13835;DHT22;6988;52.614;13.500;2023-09-30T09:55:02;20.20;99.90
13835;DHT22;6988;52.614;13.500;2023-09-30T09:59:55;20.80;99.90
13835;DHT22;6988;52.614;13.500;2023-09-30T10:04:48;21.20;99.90
13835;DHT22;6988;52.614;13.500;2023-09-30T10:09:43;21.40;99.90
13835;DHT22;6988;52.614;13.500;2023-09-30T10:14:39;21.60;99.90
13835;DHT22;6988;52.614;13.500;2023-09-30T10:19:31;21.70;99.90
13835;DHT22;6988;52.614;13.500;2023-09-30T10:24:29;21.30;99.90
13835;DHT22;6988;52.614;13.500;2023-09-30T10:29:40;21.20;99.90
13835;DHT22;6988;52.614;13.500;2023-09-30T10:34:33;21.40;99.90
13835;DHT22;6988;52.614;13.500;2023-09-30T10:39:52;21.40;99.90
13835;DHT22;6988;52.614;13.500;2023-09-30T10:44:47;21.70;99.90
13835;DHT22;6988;52.614;13.500;2023-09-30T10:49:39;21.90;99.90
13835;DHT22;6988;52.614;13.500;2023-09-30T10:54:31;21.90;99.90
13835;DHT22;6988;52.614;13.500;2023-09-30T10:59:25;22.10;99.90
13835;DHT22;6988;52.614;13.500;2023-09-30T11:04:19;21.90;99.90
13835;DHT22;6988;52.614;13.500;2023-09-30T11:09:15;22.20;99.90
13835;DHT22;6988;52.614;13.500;2023-09-30T11:14:20;22.20;99.90
13835;DHT22;6988;52.614;13.500;2023-09-30T11:19:13;22.40;99.90
13835;DHT22;6988;52.614;13.500;2023-09-30T11:24:07;22.20;99.90
13835;DHT22;6988;52.614;13.500;2023-09-30T11:29:05;22.20;99.90
13835;DHT22;6988;52.614;13.500;2023-09-30T11:33:58;22.10;99.90
13835;DHT22;6988;52.614;13.500;2023-09-30T11:38:54;22.10;99.90
13835;DHT22;6988;52.614;13.500;2023-09-30T11:44:00;22.10;99.90
13835;DHT22;6988;52.614;13.500;2023-09-30T11:48:59;22.40;99.90
13835;DHT22;6988;52.614;13.500;2023-09-30T11:53:52;22.70;99.90
13835;DHT22;6988;52.614;13.500;2023-09-30T11:58:45;22.80;99.90
13835;DHT22;6988;52.614;13.500;2023-09-30T12:03:39;23.00;99.90
13835;DHT22;6988;52.614;13.500;2023-09-30T12:08:30;23.20;99.90
13835;DHT22;6988;52.614;13.500;2023-09-30T12:13:22;23.10;99.90
13835;DHT22;6988;52.614;13.500;2023-09-30T12:18:14;23.00;99.90
13835;DHT22;6988;52.614;13.500;2023-09-30T12:23:10;23.00;99.90
13835;DHT22;6988;52.614;13.500;2023-09-30T12:28:02;22.50;99.90
13835;DHT22;6988;52.614;13.500;2023-09-30T12:32:54;22.10;99.90
13835;DHT22;6988;52.614;13.500;2023-09-30T12:37:47;22.30;99.90
13835;DHT22;6988;52.614;13.500;2023-09-30T12:42:40;22.70;99.90
13835;DHT22;6988;52.614;13.500;2023-09-30T12:47:33;22.40;99.90
13835;DHT22;6988;52.614;13.500;2023-09-30T12:52:24;22.30;99.90
13835;DHT22;6988;52.614;13.500;2023-09-30T12:57:16;22.00;99.90
13835;DHT22;6988;52.614;13.500;2023-09-30T13:02:10;21.80;99.90
13835;DHT22;6988;52.614;13.500;2023-09-30T13:07:02;21.50;99.90
13835;DHT22;6988;52.614;13.500;2023-09-30T13:11:54;21.30;99.90
13835;DHT22;6988;52.614;13.500;2023-09-30T13:16:50;21.50;99.90
13835;DHT22;6988;52.614;13.500;2023-09-30T13:21:43;21.50;99.90
13835;DHT22;6988;52.614;13.500;2023-09-30T13:26:35;21.50;99.90
13835;DHT22;6988;52.614;13.500;2023-09-30T13:31:26;21.60;99.90
13835;DHT22;6988;52.614;13.500;2023-09-30T13:36:18;21.70;99.90
13835;DHT22;6988;52.614;13.500;2023-09-30T13:41:11;21.70;99.90
13835;DHT22;6988;52.614;13.500;2023-09-30T13:46:04;21.80;99.90
13835;DHT22;6988;52.614;13.500;2023-09-30T13:51:04;21.50;99.90
13835;DHT22;6988;52.614;13.500;2023-09-30T13:55:56;21.40;99.90
13835;DHT22;6988;52.614;13.500;2023-09-30T14:00:49;21.30;99.90
13835;DHT22;6988;52.614;13.500;2023-09-30T14:05:42;21.30;99.90
13835;DHT22;6988;52.614;13.500;2023-09-30T14:10:35;21.30;99.90
13835;DHT22;6988;52.614;13.500;2023-09-30T14:15:27;21.30;99.90
13835;DHT22;6988;52.614;13.500;2023-09-30T14:20:20;21.20;99.90
13835;DHT22;6988;52.614;13.500;2023-09-30T14:25:13;21.20;99.90
13835;DHT22;6988;52.614;13.500;2023-09-30T14:30:06;21.30;99.90
13835;DHT22;6988;52.614;13.500;2023-09-30T14:34:58;21.20;99.90
13835;DHT22;6988;52.614;13.500;2023-09-30T14:39:52;21.20;99.90
13835;DHT22;6988;52.614;13.500;2023-09-30T14:44:44;21.10;99.90
13835;DHT22;6988;52.614;13.500;2023-09-30T14:49:36;21.00;99.90
13835;DHT22;6988;52.614;13.500;2023-09-30T14:54:27;20.90;99.90
13835;DHT22;6988;52.614;13.500;2023-09-30T14:59:21;20.80;99.90
13835;DHT22;6988;52.614;13.500;2023-09-30T15:04:13;20.60;99.90
13835;DHT22;6988;52.614;13.500;2023-09-30T15:09:05;20.50;99.90
13835;DHT22;6988;52.614;13.500;2023-09-30T15:13:59;20.50;99.90
13835;DHT22;6988;52.614;13.500;2023-09-30T15:18:52;20.50;99.90
13835;DHT22;6988;52.614;13.500;2023-09-30T15:23:44;20.20;99.90
13835;DHT22;6988;52.614;13.500;2023-09-30T15:28:36;20.10;99.90
13835;DHT22;6988;52.614;13.500;2023-09-30T15:33:28;19.90;99.90
13835;DHT22;6988;52.614;13.500;2023-09-30T15:38:21;19.80;99.90
13835;DHT22;6988;52.614;13.500;2023-09-30T15:43:14;19.70;99.90
13835;DHT22;6988;52.614;13.500;2023-09-30T15:48:06;19.50;99.90
13835;DHT22;6988;52.614;13.500;2023-09-30T15:52:57;19.40;99.90
13835;DHT22;6988;52.614;13.500;2023-09-30T15:57:50;19.40;99.90
13835;DHT22;6988;52.614;13.500;2023-09-30T16:02:42;19.20;99.90
13835;DHT22;6988;52.614;13.500;2023-09-30T16:07:35;19.10;99.90
13835;DHT22;6988;52.614;13.500;2023-09-30T16:12:27;18.90;99.90
13835;DHT22;6988;52.614;13.500;2023-09-30T16:17:20;18.80;99.90
13835;DHT22;6988;52.614;13.500;2023-09-30T16:22:11;18.60;99.90
13835;DHT22;6988;52.614;13.500;2023-09-30T16:27:04;18.40;99.90
13835;DHT22;6988;52.614;13.500;2023-09-30T16:31:56;18.20;99.90
13835;DHT22;6988;52.614;13.500;2023-09-30T16:36:49;18.00;99.90
13835;DHT22;6988;52.614;13.500;2023-09-30T16:41:40;17.90;99.90
13835;DHT22;6988;52.614;13.500;2023-09-30T16:46:32;17.70;99.90
13835;DHT22;6988;52.614;13.500;2023-09-30T16:51:24;17.50;99.90
13835;DHT22;6988;52.614;13.500;2023-09-30T16:56:17;17.40;99.90
13835;DHT22;6988;52.614;13.500;2023-09-30T17:01:09;17.20;99.90
13835;DHT22;6988;52.614;13.500;2023-09-30T17:06:03;17.10;99.90
13835;DHT22;6988;52.614;13.500;2023-09-30T17:10:54;17.00;99.90
13835;DHT22;6988;52.614;13.500;2023-09-30T17:15:48;16.90;99.90
13835;DHT22;6988;52.614;13.500;2023-09-30T17:20:42;16.70;99.90
13835;DHT22;6988;52.614;13.500;2023-09-30T17:25:35;16.70;99.90
13835;DHT22;6988;52.614;13.500;2023-09-30T17:30:27;16.50;99.90
13835;DHT22;6988;52.614;13.500;2023-09-30T17:35:20;16.30;99.90
13835;DHT22;6988;52.614;13.500;2023-09-30T17:40:12;16.30;99.90
13835;DHT22;6988;52.614;13.500;2023-09-30T17:45:04;16.20;99.90
13835;DHT22;6988;52.614;13.500;2023-09-30T17:49:59;16.00;99.90
13835;DHT22;6988;52.614;13.500;2023-09-30T17:54:53;15.90;99.90
13835;DHT22;6988;52.614;13.500;2023-09-30T17:59:44;15.70;99.90
13835;DHT22;6988;52.614;13.500;2023-09-30T18:04:36;15.60;99.90
13835;DHT22;6988;52.614;13.500;2023-09-30T18:09:32;15.60;99.90
13835;DHT22;6988;52.614;13.500;2023-09-30T18:14:25;15.50;99.90
13835;DHT22;6988;52.614;13.500;2023-09-30T18:19:16;15.30;99.90
13835;DHT22;6988;52.614;13.500;2023-09-30T18:24:10;15.40;99.90
13835;DHT22;6988;52.614;13.500;2023-09-30T18:29:02;15.30;99.90
13835;DHT22;6988;52.614;13.500;2023-09-30T18:33:55;15.20;99.90
13835;DHT22;6988;52.614;13.500;2023-09-30T18:38:47;15.20;99.90
13835;DHT22;6988;52.614;13.500;2023-09-30T18:43:38;15.10;99.90
13835;DHT22;6988;52.614;13.500;2023-09-30T18:48:30;15.00;99.90
13835;DHT22;6988;52.614;13.500;2023-09-30T18:53:23;15.00;99.90
13835;DHT22;6988;52.614;13.500;2023-09-30T18:58:15;14.80;99.90
13835;DHT22;6988;52.614;13.500;2023-09-30T19:03:08;14.60;99.90
13835;DHT22;6988;52.614;13.500;2023-09-30T19:08:01;14.70;99.90
13835;DHT22;6988;52.614;13.500;2023-09-30T19:12:55;14.60;99.90
13835;DHT22;6988;52.614;13.500;2023-09-30T19:17:47;14.60;99.90
13835;DHT22;6988;52.614;13.500;2023-09-30T19:22:39;14.60;99.90
13835;DHT22;6988;52.614;13.500;2023-09-30T19:27:31;14.50;99.90
13835;DHT22;6988;52.614;13.500;2023-09-30T19:32:24;14.40;99.90
13835;DHT22;6988;52.614;13.500;2023-09-30T19:37:16;14.30;99.90
13835;DHT22;6988;52.614;13.500;2023-09-30T19:42:07;14.30;99.90
13835;DHT22;6988;52.614;13.500;2023-09-30T19:47:00;14.20;99.90
13835;DHT22;6988;52.614;13.500;2023-09-30T19:51:54;14.20;99.90
13835;DHT22;6988;52.614;13.500;2023-09-30T19:56:46;14.10;99.90
13835;DHT22;6988;52.614;13.500;2023-09-30T20:01:38;14.00;99.90
13835;DHT22;6988;52.614;13.500;2023-09-30T20:06:30;14.00;99.90
13835;DHT22;6988;52.614;13.500;2023-09-30T20:11:25;13.90;99.90
13835;DHT22;6988;52.614;13.500;2023-09-30T20:16:19;13.70;99.90
13835;DHT22;6988;52.614;13.500;2023-09-30T20:21:11;13.70;99.90
13835;DHT22;6988;52.614;13.500;2023-09-30T20:26:03;13.50;99.90
13835;DHT22;6988;52.614;13.500;2023-09-30T20:30:58;13.50;99.90
13835;DHT22;6988;52.614;13.500;2023-09-30T20:35:52;13.50;99.90
13835;DHT22;6988;52.614;13.500;2023-09-30T20:40:44;13.40;99.90
13835;DHT22;6988;52.614;13.500;2023-09-30T20:45:38;13.40;99.90
13835;DHT22;6988;52.614;13.500;2023-09-30T20:50:31;13.30;99.90
13835;DHT22;6988;52.614;13.500;2023-09-30T20:55:23;13.30;99.90
13835;DHT22;6988;52.614;13.500;2023-09-30T21:00:15;13.30;99.90
13835;DHT22;6988;52.614;13.500;2023-09-30T21:05:08;13.30;99.90
13835;DHT22;6988;52.614;13.500;2023-09-30T21:10:01;13.40;99.90
13835;DHT22;6988;52.614;13.500;2023-09-30T21:14:53;13.40;99.90
13835;DHT22;6988;52.614;13.500;2023-09-30T21:19:45;13.40;99.90
13835;DHT22;6988;52.614;13.500;2023-09-30T21:24:37;13.40;99.90
13835;DHT22;6988;52.614;13.500;2023-09-30T21:29:30;13.30;99.90
13835;DHT22;6988;52.614;13.500;2023-09-30T21:34:22;13.30;99.90
13835;DHT22;6988;52.614;13.500;2023-09-30T21:39:14;13.30;99.90
13835;DHT22;6988;52.614;13.500;2023-09-30T21:44:06;13.30;99.90
13835;DHT22;6988;52.614;13.500;2023-09-30T22:04:26;13.20;99.90
13835;DHT22;6988;52.614;13.500;2023-09-30T22:09:19;13.20;99.90
13835;DHT22;6988;52.614;13.500;2023-09-30T22:14:12;13.20;99.90
13835;DHT22;6988;52.614;13.500;2023-09-30T22:19:04;13.20;99.90
13835;DHT22;6988;52.614;13.500;2023-09-30T22:23:58;13.10;99.90
13835;DHT22;6988;52.614;13.500;2023-09-30T22:28:50;13.10;99.90
13835;DHT22;6988;52.614;13.500;2023-09-30T22:33:42;13.20;99.90
13835;DHT22;6988;52.614;13.500;2023-09-30T22:38:33;13.20;99.90
13835;DHT22;6988;52.614;13.500;2023-09-30T22:43:26;13.20;99.90
13835;DHT22;6988;52.614;13.500;2023-09-30T22:48:18;13.30;99.90
13835;DHT22;6988;52.614;13.500;2023-09-30T22:53:10;13.30;99.90
13835;DHT22;6988;52.614;13.500;2023-09-30T22:58:03;13.30;99.90
13835;DHT22;6988;52.614;13.500;2023-09-30T23:02:57;13.30;99.90
13835;DHT22;6988;52.614;13.500;2023-09-30T23:07:49;13.30;99.90
13835;DHT22;6988;52.614;13.500;2023-09-30T23:12:40;13.30;99.90
13835;DHT22;6988;52.614;13.500;2023-09-30T23:17:32;13.30;99.90
13835;DHT22;6988;52.614;13.500;2023-09-30T23:22:30;13.30;99.90
13835;DHT22;6988;52.614;13.500;2023-09-30T23:27:22;13.30;99.90
13835;DHT22;6988;52.614;13.500;2023-09-30T23:32:14;13.30;99.90
13835;DHT22;6988;52.614;13.500;2023-09-30T23:37:06;13.40;99.90
13835;DHT22;6988;52.614;13.500;2023-09-30T23:42:00;13.40;99.90
13835;DHT22;6988;52.614;13.500;2023-09-30T23:46:54;13.40;99.90
13835;DHT22;6988;52.614;13.500;2023-09-30T23:51:47;13.50;99.90
13835;DHT22;6988;52.614;13.500;2023-09-30T23:56:39;13.50;99.90
